Time;durP1;ratioP1;P1;durP2;ratioP2;P2;SDS_P1;SDS_P2;PMS_P1;PMS_P2;Temp;Humidity;BMP_temperature;BMP_pressure;BME280_temperature;BME280_humidity;BME280_pressure;Samples;Min_cycle;Max_cycle;Signal;HPM_P1;HPM_P2
2022/05/15 00:02:04;;;;;;;10.05;3.08;;;;;;;8.75;94.02;102070.75;5030846;28;20296;-51
2022/05/15 00:04:29;;;;;;;10.75;4.00;;;;;;;8.62;93.93;102064.63;5033121;28;20232;-49
2022/05/15 00:06:55;;;;;;;10.63;3.88;;;;;;;8.65;94.40;102065.47;5033055;28;20274;-51
2022/05/15 00:09:20;;;;;;;12.65;4.07;;;;;;;8.59;94.58;102062.88;5033013;28;20639;-48
2022/05/15 00:11:46;;;;;;;11.55;4.07;;;;;;;8.48;95.01;102062.09;5033301;28;20207;-49
2022/05/15 00:14:12;;;;;;;9.48;3.63;;;;;;;8.43;95.94;102071.94;5032424;28;20244;-49
2022/05/15 00:16:38;;;;;;;12.05;3.85;;;;;;;8.29;96.09;102069.38;5031500;28;20625;-48
2022/05/15 00:19:04;;;;;;;12.15;4.00;;;;;;;8.27;96.62;102072.94;5033377;28;20174;-50
2022/05/15 00:21:29;;;;;;;8.90;4.07;;;;;;;8.32;96.90;102066.66;5033195;28;20279;-48
2022/05/15 00:23:55;;;;;;;7.28;3.38;;;;;;;8.32;96.64;102073.78;5032400;28;20578;-51
2022/05/15 00:26:20;;;;;;;12.60;3.63;;;;;;;8.31;96.53;102072.91;5033372;28;20234;-52
2022/05/15 00:28:49;;;;;;;11.00;3.42;;;;;;;8.25;96.55;102088.97;5032660;28;20279;-51
2022/05/15 00:31:14;;;;;;;5.43;3.20;;;;;;;8.30;97.05;102075.59;5033059;28;20382;-49
2022/05/15 00:33:42;;;;;;;9.63;3.50;;;;;;;8.29;96.78;102071.13;5031170;28;20216;-48
2022/05/15 00:36:08;;;;;;;7.25;3.83;;;;;;;8.28;96.81;102078.25;5032719;28;20179;-50
2022/05/15 00:38:33;;;;;;;11.38;3.25;;;;;;;8.24;97.01;102080.09;5031604;28;20393;-48
2022/05/15 00:40:59;;;;;;;9.85;4.28;;;;;;;8.09;97.04;102076.63;5032865;28;20271;-49
2022/05/15 00:43:46;;;;;;;7.70;3.90;;;;;;;8.15;98.04;102081.94;5032022;28;20246;-49
2022/05/15 00:46:31;;;;;;;9.10;4.20;;;;;;;8.13;97.71;102078.38;5033120;28;20183;-50
2022/05/15 00:48:58;;;;;;;8.52;3.40;;;;;;;8.05;97.81;102073.13;5032587;28;20226;-48
2022/05/15 00:51:31;;;;;;;11.00;4.22;;;;;;;8.04;97.99;102079.34;5033025;28;20206;-47
2022/05/15 00:54:07;;;;;;;9.63;4.00;;;;;;;7.83;98.06;102077.72;5031690;28;20604;-48
2022/05/15 00:56:36;;;;;;;7.60;3.53;;;;;;;7.90;98.10;102070.56;5031316;28;20222;-49
2022/05/15 00:59:17;;;;;;;9.13;4.00;;;;;;;7.75;98.13;102075.09;5031305;28;20295;-48
2022/05/15 01:01:43;;;;;;;10.50;3.85;;;;;;;7.86;98.58;102074.16;5031098;28;20214;-47
2022/05/15 01:04:09;;;;;;;8.85;4.10;;;;;;;7.84;98.03;102079.50;5030546;28;20168;-50
2022/05/15 01:06:37;;;;;;;9.73;3.63;;;;;;;7.88;98.13;102081.25;5030646;28;20180;-49
2022/05/15 01:09:04;;;;;;;11.40;3.65;;;;;;;7.75;97.75;102084.91;5032285;28;20541;-47
2022/05/15 01:11:32;;;;;;;9.15;3.38;;;;;;;7.72;98.15;102084.91;5014287;28;20199;-49
2022/05/15 01:14:02;;;;;;;7.97;3.47;;;;;;;7.80;98.24;102083.94;5029949;28;20200;-51
2022/05/15 01:16:27;;;;;;;9.88;3.85;;;;;;;7.74;98.13;102073.34;5032258;28;20184;-47
2022/05/15 01:18:57;;;;;;;8.48;3.65;;;;;;;7.71;98.18;102092.03;5030372;28;20172;-47
2022/05/15 01:21:22;;;;;;;10.02;3.35;;;;;;;7.68;98.03;102086.72;5032100;28;20207;-49
2022/05/15 01:23:49;;;;;;;10.48;3.78;;;;;;;7.66;97.83;102083.16;5030161;28;20264;-49
2022/05/15 01:26:15;;;;;;;11.15;3.38;;;;;;;7.66;98.08;102090.28;5008557;28;20189;-49
2022/05/15 01:28:41;;;;;;;9.27;3.65;;;;;;;7.52;97.89;102087.69;5010480;28;20193;-47
2022/05/15 01:31:06;;;;;;;8.18;3.63;;;;;;;7.42;97.82;102094.84;5011728;28;20250;-48
2022/05/15 01:33:32;;;;;;;8.43;3.85;;;;;;;7.28;97.86;102094.94;5005539;28;20201;-48
2022/05/15 01:35:57;;;;;;;6.55;3.60;;;;;;;7.29;98.39;102094.03;5005933;28;20181;-48
2022/05/15 01:38:23;;;;;;;8.15;3.17;;;;;;;7.40;98.84;102086.84;5010334;28;20177;-47
2022/05/15 01:40:50;;;;;;;10.82;3.88;;;;;;;7.21;98.77;102088.75;5010007;28;20193;-47
2022/05/15 01:43:18;;;;;;;7.72;3.60;;;;;;;7.11;99.33;102089.66;5009374;28;20195;-48
2022/05/15 01:45:44;;;;;;;10.05;4.18;;;;;;;7.11;99.46;102088.78;5011815;28;20640;-48
2022/05/15 01:48:09;;;;;;;8.43;3.53;;;;;;;7.12;99.58;102093.19;5012340;28;20243;-48
2022/05/15 01:50:35;;;;;;;6.05;3.13;;;;;;;7.14;99.94;102088.75;5011637;28;20192;-49
2022/05/15 01:53:00;;;;;;;5.90;3.33;;;;;;;7.25;99.54;102092.25;5009590;28;20208;-50
2022/05/15 01:55:26;;;;;;;10.18;3.35;;;;;;;7.16;99.14;102097.63;5010008;28;20188;-48
2022/05/15 01:57:52;;;;;;;8.52;3.65;;;;;;;7.30;99.74;102086.91;5011317;28;20450;-48
2022/05/15 02:00:23;;;;;;;10.57;3.40;;;;;;;7.28;99.74;102091.34;5009764;28;20271;-48
2022/05/15 02:02:50;;;;;;;9.23;3.58;;;;;;;7.15;99.87;102093.19;5009831;28;20180;-47
2022/05/15 02:05:17;;;;;;;7.93;3.30;;;;;;;7.21;99.93;102090.50;5009853;28;20226;-48
2022/05/15 02:07:43;;;;;;;8.70;3.00;;;;;;;6.93;99.81;102095.94;5009824;28;20271;-48
2022/05/15 02:10:10;;;;;;;7.45;3.40;;;;;;;6.96;100.00;102109.25;5011263;28;20260;-49
2022/05/15 02:12:36;;;;;;;10.68;3.72;;;;;;;6.68;100.00;102110.19;5009797;28;20216;-49
2022/05/15 02:15:03;;;;;;;6.68;3.17;;;;;;;6.76;100.00;102097.75;5010897;28;20546;-47
2022/05/15 02:17:29;;;;;;;6.82;3.05;;;;;;;6.94;100.00;102110.13;5009888;28;20164;-48
2022/05/15 02:19:56;;;;;;;8.27;3.28;;;;;;;6.97;100.00;102112.78;5016913;28;20266;-47
2022/05/15 02:22:21;;;;;;;5.20;3.10;;;;;;;6.97;100.00;102110.13;5031040;28;20262;-48
2022/05/15 02:24:48;;;;;;;6.60;3.00;;;;;;;7.04;100.00;102117.22;5028218;28;20584;-50
2022/05/15 02:27:14;;;;;;;9.02;3.70;;;;;;;6.97;100.00;102112.78;5012467;28;20230;-48
2022/05/15 02:29:40;;;;;;;10.73;4.13;;;;;;;6.85;100.00;102107.50;5029638;28;20249;-50
2022/05/15 02:32:06;;;;;;;10.10;4.03;;;;;;;6.86;100.00;102103.94;5029165;28;20196;-47
2022/05/15 02:34:32;;;;;;;8.90;3.60;;;;;;;6.85;100.00;102105.72;5030376;28;20359;-48
2022/05/15 02:36:59;;;;;;;7.55;3.45;;;;;;;6.83;99.98;102115.50;5029514;28;20658;-49
2022/05/15 02:39:25;;;;;;;7.32;3.30;;;;;;;6.74;100.00;102115.50;5029159;28;20176;-48
2022/05/15 02:41:51;;;;;;;5.18;2.70;;;;;;;6.86;100.00;102107.47;5029276;28;20199;-48
2022/05/15 02:44:17;;;;;;;7.35;3.30;;;;;;;6.76;99.98;102106.63;5029980;28;20237;-47
2022/05/15 02:46:42;;;;;;;8.93;3.65;;;;;;;6.71;100.00;102111.09;5012239;28;20199;-49
2022/05/15 02:51:53;;;;;;;8.38;3.75;;;;;;;6.67;100.00;102108.41;5030294;28;20196;-47
2022/05/15 02:54:19;;;;;;;4.95;2.90;;;;;;;6.72;100.00;102107.50;5027909;28;20208;-48
2022/05/15 02:56:45;;;;;;;7.65;3.80;;;;;;;6.67;100.00;102096.00;5029593;28;20176;-47
2022/05/15 02:59:11;;;;;;;6.95;3.17;;;;;;;6.70;99.83;102100.41;5029725;28;20172;-50
2022/05/15 03:01:37;;;;;;;6.72;3.15;;;;;;;6.68;99.26;102100.41;5029841;28;20223;-47
2022/05/15 03:04:03;;;;;;;7.07;3.33;;;;;;;6.73;99.00;102098.63;5029375;28;20595;-48
2022/05/15 03:06:29;;;;;;;7.63;3.40;;;;;;;6.73;98.66;102095.06;5028670;28;20651;-48
2022/05/15 03:08:54;;;;;;;7.60;3.22;;;;;;;6.57;98.39;102092.44;5028104;28;20430;-48
2022/05/15 03:11:20;;;;;;;8.70;3.85;;;;;;;6.56;98.76;102101.34;5028347;28;20204;-49
2022/05/15 03:13:46;;;;;;;5.70;3.33;;;;;;;6.50;98.53;102111.09;5029251;28;20208;-49
2022/05/15 03:16:13;;;;;;;7.45;3.70;;;;;;;6.52;98.49;102104.88;5027827;28;20183;-49
2022/05/15 03:18:45;;;;;;;5.28;3.35;;;;;;;6.49;98.28;102110.19;5029652;28;20556;-48
2022/05/15 03:21:13;;;;;;;8.23;3.15;;;;;;;6.52;98.41;102107.53;5027640;28;20207;-47
2022/05/15 03:23:38;;;;;;;6.25;3.08;;;;;;;6.26;97.88;102119.97;5029242;28;20156;-48
2022/05/15 03:26:04;;;;;;;8.55;3.97;;;;;;;6.30;98.77;102104.00;5009115;28;20179;-48
2022/05/15 03:28:30;;;;;;;6.75;3.67;;;;;;;6.26;98.58;102118.19;5018822;28;20180;-49
2022/05/15 03:30:55;;;;;;;8.95;3.60;;;;;;;6.18;98.87;102128.81;5010353;28;20208;-50
2022/05/15 03:33:21;;;;;;;7.47;3.63;;;;;;;6.25;99.41;102121.72;5006368;28;20258;-48
2022/05/15 03:35:46;;;;;;;7.25;3.67;;;;;;;6.28;99.56;102126.19;5004051;28;20232;-48
2022/05/15 03:38:12;;;;;;;7.38;3.58;;;;;;;6.32;99.46;102119.97;5019136;28;20183;-50
2022/05/15 03:40:38;;;;;;;9.38;4.63;;;;;;;6.34;99.37;102118.19;5035801;28;20195;-47
2022/05/15 03:43:04;;;;;;;5.85;3.58;;;;;;;6.38;99.53;102123.53;5034530;28;20172;-48
2022/05/15 03:45:29;;;;;;;9.52;4.03;;;;;;;6.43;99.70;102115.53;5036077;28;20259;-47
2022/05/15 03:47:55;;;;;;;9.25;4.60;;;;;;;6.33;99.69;102125.28;5034610;28;20206;-48
2022/05/15 03:50:24;;;;;;;8.10;4.28;;;;;;;6.46;100.00;102130.63;5035775;28;20163;-49
2022/05/15 03:52:50;;;;;;;7.05;3.67;;;;;;;6.52;100.00;102120.84;5034504;28;20231;-47
2022/05/15 03:55:16;;;;;;;7.43;4.07;;;;;;;6.38;99.32;102130.59;5034573;28;20198;-48
2022/05/15 03:57:42;;;;;;;12.40;4.85;;;;;;;6.31;99.49;102134.16;5035012;28;20741;-47
2022/05/15 04:00:11;;;;;;;7.38;4.05;;;;;;;6.36;99.88;102133.28;5034645;28;20194;-47
2022/05/15 04:02:39;;;;;;;8.38;4.40;;;;;;;6.29;100.00;102147.47;5036347;28;20214;-49
2022/05/15 04:05:09;;;;;;;9.85;4.70;;;;;;;6.25;99.85;102148.34;5034161;28;20183;-49
2022/05/15 04:07:44;;;;;;;10.88;4.70;;;;;;;6.29;100.00;102152.78;5034762;28;20199;-50
2022/05/15 04:10:12;;;;;;;8.32;4.45;;;;;;;6.38;100.00;102150.16;5036163;28;20211;-47
2022/05/15 04:12:37;;;;;;;6.07;4.57;;;;;;;6.37;100.00;102142.16;5034621;28;20225;-48
2022/05/15 04:15:03;;;;;;;9.15;4.50;;;;;;;6.50;100.00;102143.06;5034397;28;20255;-47
2022/05/15 04:17:28;;;;;;;7.75;4.35;;;;;;;6.44;99.95;102154.56;5034439;28;20188;-49
2022/05/15 04:19:54;;;;;;;8.38;4.50;;;;;;;6.48;100.00;102166.13;5027575;28;20219;-48
2022/05/15 04:22:19;;;;;;;8.30;4.50;;;;;;;6.56;100.00;102159.91;5016509;28;20210;-49
2022/05/15 04:24:45;;;;;;;11.00;4.55;;;;;;;6.53;100.00;102156.34;5015408;28;20172;-48
2022/05/15 04:27:10;;;;;;;9.20;4.80;;;;;;;6.54;100.00;102156.38;5016187;28;20181;-47
2022/05/15 04:29:36;;;;;;;8.18;4.03;;;;;;;6.61;100.00;102159.91;5016219;28;20191;-47
2022/05/15 04:32:02;;;;;;;7.72;4.10;;;;;;;6.72;100.00;102160.78;5014371;28;20559;-47
2022/05/15 04:34:28;;;;;;;10.55;4.50;;;;;;;6.85;100.00;102161.66;5014260;28;20216;-49
2022/05/15 04:36:54;;;;;;;9.07;4.03;;;;;;;6.97;100.00;102160.75;5014672;28;20554;-48
2022/05/15 04:39:20;;;;;;;9.43;3.92;;;;;;;7.03;100.00;102170.50;5016263;28;20173;-47
2022/05/15 04:41:46;;;;;;;8.63;4.80;;;;;;;7.01;100.00;102163.41;4998427;28;20204;-48
2022/05/15 04:44:12;;;;;;;7.28;4.93;;;;;;;7.11;100.00;102168.72;5014278;28;20177;-50
2022/05/15 04:46:38;;;;;;;8.07;5.20;;;;;;;7.30;100.00;102159.75;4998304;28;20184;-48
2022/05/15 04:49:05;;;;;;;10.05;5.22;;;;;;;7.52;100.00;102165.94;5012829;28;20188;-48
2022/05/15 04:51:31;;;;;;;8.63;5.10;;;;;;;7.73;100.00;102170.25;5013070;28;20196;-49
2022/05/15 04:53:57;;;;;;;13.27;7.43;;;;;;;7.73;100.00;102172.06;5012358;28;20294;-48
2022/05/15 04:56:22;;;;;;;13.40;7.43;;;;;;;7.78;100.00;102167.56;5012771;28;20640;-47
2022/05/15 04:58:48;;;;;;;10.70;6.88;;;;;;;7.82;100.00;102164.88;5012734;28;20200;-48
2022/05/15 05:01:13;;;;;;;12.25;7.18;;;;;;;7.91;100.00;102169.28;5012151;28;20262;-50
2022/05/15 05:03:39;;;;;;;13.68;9.07;;;;;;;8.10;100.00;102172.72;5012317;28;20181;-48
2022/05/15 05:06:04;;;;;;;14.50;9.60;;;;;;;8.20;100.00;102179.78;5012640;28;20672;-47
2022/05/15 05:08:30;;;;;;;14.35;9.50;;;;;;;8.23;100.00;102174.41;5012429;28;20199;-48
2022/05/15 05:10:55;;;;;;;15.13;9.68;;;;;;;8.36;100.00;102169.88;5012308;28;20193;-49
2022/05/15 05:13:21;;;;;;;13.48;9.57;;;;;;;8.44;100.00;102183.22;5012051;28;20205;-47
2022/05/15 05:15:46;;;;;;;16.05;8.90;;;;;;;8.63;100.00;102178.59;5012197;28;20627;-49
2022/05/15 05:18:18;;;;;;;17.40;9.23;;;;;;;8.74;100.00;102187.41;5012391;28;20231;-49
2022/05/15 05:20:45;;;;;;;20.92;9.55;;;;;;;8.76;100.00;102185.59;5010620;28;20695;-47
2022/05/15 05:23:12;;;;;;;16.50;9.30;;;;;;;9.01;100.00;102186.28;5012141;28;20589;-48
2022/05/15 05:25:37;;;;;;;19.60;9.45;;;;;;;9.23;100.00;102197.63;5012113;28;20176;-48
2022/05/15 05:28:04;;;;;;;18.25;8.95;;;;;;;9.28;100.00;102202.94;5012691;28;20176;-48
2022/05/15 05:30:31;;;;;;;14.30;7.90;;;;;;;9.31;100.00;102197.53;5011936;28;20204;-47
2022/05/15 05:32:56;;;;;;;16.73;8.63;;;;;;;9.34;100.00;102202.88;5011727;28;20235;-48
2022/05/15 05:35:24;;;;;;;13.68;7.85;;;;;;;9.41;100.00;102204.56;5013053;28;20173;-47
2022/05/15 05:37:51;;;;;;;15.85;8.15;;;;;;;9.53;100.00;102203.53;5031811;28;20638;-48
2022/05/15 05:40:17;;;;;;;22.05;8.10;;;;;;;9.53;100.00;102202.66;5031559;28;20670;-48
2022/05/15 05:42:43;;;;;;;17.60;7.60;;;;;;;9.88;100.00;102207.56;5031692;28;20250;-50
2022/05/15 05:45:09;;;;;;;16.15;7.75;;;;;;;9.81;100.00;102209.44;5030929;28;20164;-50
2022/05/15 05:47:35;;;;;;;18.67;7.63;;;;;;;9.94;100.00;102210.16;5031773;28;20199;-49
2022/05/15 05:50:00;;;;;;;16.95;7.03;;;;;;;10.05;100.00;102204.66;5031344;28;20651;-48
2022/05/15 05:52:26;;;;;;;20.25;7.25;;;;;;;10.37;100.00;102217.63;5031798;28;20196;-49
2022/05/15 05:54:52;;;;;;;17.15;7.78;;;;;;;10.38;99.80;102215.81;5013349;28;20214;-49
2022/05/15 05:57:18;;;;;;;16.92;6.35;;;;;;;11.00;99.18;102208.53;5031196;28;20572;-49
2022/05/15 05:59:44;;;;;;;18.38;6.38;;;;;;;10.47;97.57;102226.38;5029827;28;20179;-49
2022/05/15 06:02:09;;;;;;;14.25;7.03;;;;;;;10.67;97.66;102224.31;5029268;28;20200;-48
2022/05/15 06:04:42;;;;;;;13.50;6.65;;;;;;;10.50;96.79;102226.34;5030827;28;20291;-48
2022/05/15 06:07:10;;;;;;;13.07;5.47;;;;;;;11.10;97.20;102211.94;5030958;28;20183;-46
2022/05/15 06:09:37;;;;;;;13.25;7.00;;;;;;;11.02;95.88;102214.78;5029640;28;20270;-47
2022/05/15 06:12:04;;;;;;;17.67;7.10;;;;;;;11.48;94.92;102219.28;5031005;28;20678;-47
2022/05/15 06:14:29;;;;;;;16.92;6.53;;;;;;;11.82;92.88;102228.44;5030678;28;20211;-47
2022/05/15 06:16:55;;;;;;;15.85;6.75;;;;;;;11.49;93.56;102223.72;5031092;28;20653;-43
2022/05/15 06:19:20;;;;;;;13.95;6.43;;;;;;;11.64;93.23;102227.00;5029833;28;20187;-43
2022/05/15 06:21:45;;;;;;;16.02;6.35;;;;;;;12.21;91.48;102225.84;5030817;28;20204;-43
2022/05/15 06:24:11;;;;;;;14.13;6.57;;;;;;;11.78;89.39;102222.22;5031238;28;20258;-45
2022/05/15 06:26:36;;;;;;;19.17;6.20;;;;;;;12.03;89.52;102221.75;5030903;28;20184;-44
2022/05/15 06:29:01;;;;;;;11.90;5.55;;;;;;;12.79;89.22;102219.06;5029848;28;20180;-43
2022/05/15 06:31:27;;;;;;;16.00;6.05;;;;;;;12.45;87.31;102219.00;5031059;28;20633;-44
2022/05/15 06:33:52;;;;;;;13.38;6.25;;;;;;;11.89;89.37;102224.72;5030887;28;20216;-45
2022/05/15 06:36:18;;;;;;;15.43;5.82;;;;;;;11.86;89.45;102232.81;5030315;28;20646;-44
2022/05/15 06:38:43;;;;;;;13.07;5.65;;;;;;;12.64;88.67;102216.72;5031407;28;20183;-45
2022/05/15 06:41:09;;;;;;;14.95;5.60;;;;;;;12.98;87.04;102206.88;5030933;28;20204;-46
2022/05/15 06:43:36;;;;;;;13.70;5.22;;;;;;;12.28;85.97;102216.69;5030877;28;20168;-46
2022/05/15 06:46:02;;;;;;;15.48;5.93;;;;;;;13.07;86.16;102212.97;5031105;28;20208;-44
2022/05/15 06:48:27;;;;;;;14.85;5.80;;;;;;;13.55;84.54;102208.06;5031488;28;20211;-45
2022/05/15 06:50:52;;;;;;;14.73;5.93;;;;;;;13.45;82.21;102211.97;5029454;28;20222;-45
2022/05/15 06:53:18;;;;;;;12.13;4.68;;;;;;;13.85;82.14;102215.31;5030167;28;20199;-46
2022/05/15 06:58:28;;;;;;;14.30;4.88;;;;;;;14.52;79.73;102213.22;5030848;28;20270;-45
2022/05/15 07:00:54;;;;;;;11.45;4.47;;;;;;;14.11;79.84;102222.59;5031459;28;20287;-45
2022/05/15 07:03:19;;;;;;;14.50;5.20;;;;;;;13.32;81.52;102215.91;5031428;28;20179;-48
2022/05/15 07:05:45;;;;;;;8.45;4.43;;;;;;;14.03;81.70;102222.81;5029365;28;20638;-46
2022/05/15 07:08:11;;;;;;;10.07;4.57;;;;;;;14.09;80.24;102214.56;5030501;28;20192;-44
2022/05/15 07:10:37;;;;;;;12.98;4.90;;;;;;;13.94;79.98;102217.72;5030407;28;20214;-45
2022/05/15 07:13:02;;;;;;;14.88;4.85;;;;;;;13.96;78.93;102218.56;5029968;28;20184;-45
2022/05/15 07:15:29;;;;;;;14.25;5.05;;;;;;;14.07;79.07;102208.34;5029224;28;20201;-46
2022/05/15 07:17:55;;;;;;;14.15;4.80;;;;;;;14.59;77.95;102212.09;5030450;28;20174;-43
2022/05/15 07:20:20;;;;;;;14.02;5.28;;;;;;;14.53;75.94;102214.97;5030514;28;20175;-46
2022/05/15 07:22:45;;;;;;;12.55;4.72;;;;;;;14.11;78.31;102226.19;5030180;28;20508;-48
2022/05/15 07:25:11;;;;;;;15.07;5.60;;;;;;;14.19;78.30;102229.53;5030341;28;20200;-45
2022/05/15 07:27:36;;;;;;;13.02;5.35;;;;;;;13.76;79.24;102224.53;5030254;28;20642;-44
2022/05/15 07:30:03;;;;;;;10.95;4.50;;;;;;;14.13;79.62;102224.31;5030158;28;20191;-48
2022/05/15 07:32:29;;;;;;;14.95;4.90;;;;;;;14.32;78.68;102223.72;5030677;28;20184;-45
2022/05/15 07:34:54;;;;;;;12.50;5.43;;;;;;;13.95;79.05;102227.56;5030053;28;20168;-48
2022/05/15 07:37:20;;;;;;;9.95;5.35;;;;;;;14.77;78.33;102232.19;5030318;28;20218;-44
2022/05/15 07:39:45;;;;;;;16.65;6.20;;;;;;;14.54;77.86;102223.94;5030204;28;20184;-44
2022/05/15 07:42:11;;;;;;;11.40;5.03;;;;;;;14.94;79.07;102218.13;5029858;28;20204;-47
2022/05/15 07:44:37;;;;;;;16.00;5.55;;;;;;;15.38;75.79;102223.78;5028228;28;20191;-47
2022/05/15 07:47:04;;;;;;;15.27;5.22;;;;;;;16.12;74.88;102218.34;5029942;28;20184;-42
2022/05/15 07:49:31;;;;;;;13.30;6.03;;;;;;;15.81;74.58;102219.53;5030261;28;20153;-45
2022/05/15 07:51:57;;;;;;;15.27;6.45;;;;;;;15.09;75.74;102221.25;5030043;28;20192;-49
2022/05/15 07:54:23;;;;;;;13.43;6.05;;;;;;;14.81;77.09;102222.19;5028577;28;20255;-45
2022/05/15 07:56:48;;;;;;;13.73;5.28;;;;;;;14.59;77.95;102225.59;5030024;28;20248;-46
2022/05/15 07:59:14;;;;;;;11.68;5.38;;;;;;;14.92;79.62;102225.41;5029540;28;20161;-45
2022/05/15 08:01:40;;;;;;;12.95;5.43;;;;;;;15.89;76.74;102223.75;5029827;28;20203;-45
2022/05/15 08:04:06;;;;;;;10.80;5.85;;;;;;;15.19;75.70;102219.97;5029977;28;20161;-44
2022/05/15 08:09:16;;;;;;;12.27;5.57;;;;;;;15.30;75.75;102225.00;5029740;28;20634;-45
2022/05/15 08:11:41;;;;;;;10.23;5.60;;;;;;;15.99;75.67;102215.22;5029623;28;20283;-45
2022/05/15 08:14:09;;;;;;;14.88;6.10;;;;;;;15.85;74.80;102217.56;5029975;28;20548;-43
2022/05/15 08:16:36;;;;;;;13.57;5.68;;;;;;;15.78;74.37;102216.94;5028688;28;20180;-45
2022/05/15 08:24:31;;;;;;;12.43;4.97;;;;;;;16.45;73.12;102216.09;5031590;28;20191;-45
2022/05/15 08:26:57;;;;;;;15.60;6.00;;;;;;;16.28;73.19;102215.91;5033706;28;20211;-45
2022/05/15 08:29:22;;;;;;;12.77;5.72;;;;;;;16.39;72.01;102229.88;5033220;28;20164;-48
2022/05/15 08:31:48;;;;;;;14.77;5.03;;;;;;;15.80;74.29;102224.97;5032850;28;20219;-45
2022/05/15 08:34:14;;;;;;;10.95;5.20;;;;;;;16.25;72.33;102221.44;5033204;28;20199;-45
2022/05/15 08:36:42;;;;;;;11.18;4.95;;;;;;;16.17;72.01;102223.56;5033038;28;20623;-44
2022/05/15 08:39:12;;;;;;;13.75;5.20;;;;;;;16.40;72.45;102215.41;5032152;28;20187;-47
2022/05/15 08:41:56;;;;;;;10.38;4.68;;;;;;;17.27;70.28;102213.59;5032415;28;20572;-45
2022/05/15 08:44:29;;;;;;;13.35;5.00;;;;;;;16.65;68.91;102227.94;5032959;28;20183;-44
2022/05/15 08:47:18;;;;;;;10.95;4.93;;;;;;;15.99;72.03;102223.34;5031848;28;20164;-44
2022/05/15 08:49:52;;;;;;;13.63;5.10;;;;;;;16.14;71.81;102215.59;5024738;28;20261;-44
2022/05/15 08:52:24;;;;;;;11.35;5.38;;;;;;;15.58;73.62;102217.66;5032720;28;20257;-45
2022/05/15 08:54:56;;;;;;;13.27;5.50;;;;;;;15.76;74.07;102224.22;5032399;28;20650;-47
2022/05/15 08:57:50;;;;;;;11.43;5.25;;;;;;;16.08;72.56;102214.00;5031840;28;20647;-46
2022/05/15 09:00:20;;;;;;;12.68;6.05;;;;;;;15.54;74.04;102213.28;5032421;28;20168;-45
2022/05/15 09:02:46;;;;;;;11.18;5.20;;;;;;;15.41;74.50;102217.38;5032434;28;20191;-44
2022/05/15 09:05:14;;;;;;;10.00;5.13;;;;;;;15.65;73.55;102216.50;5032786;28;20157;-42
2022/05/15 09:07:42;;;;;;;12.27;5.07;;;;;;;16.34;73.73;102225.59;5032280;28;20194;-44
2022/05/15 09:10:20;;;;;;;12.88;5.50;;;;;;;16.38;73.54;102222.72;5032502;28;20172;-46
2022/05/15 09:12:53;;;;;;;11.32;5.20;;;;;;;16.56;75.05;102220.22;5032348;28;20514;-44
2022/05/15 09:15:24;;;;;;;12.68;5.60;;;;;;;16.87;73.17;102225.25;5033623;28;20176;-44
2022/05/15 09:17:58;;;;;;;10.95;5.43;;;;;;;16.75;71.46;102218.50;5032552;28;20167;-43
2022/05/15 09:20:24;;;;;;;9.88;4.93;;;;;;;17.17;71.59;102208.63;5032071;28;20218;-43
2022/05/15 09:23:11;;;;;;;12.70;6.10;;;;;;;16.54;71.55;102217.56;5031318;28;20164;-43
2022/05/15 09:25:37;;;;;;;9.75;5.22;;;;;;;17.44;71.04;102217.34;5030815;28;20180;-46
2022/05/15 09:28:05;;;;;;;10.63;5.00;;;;;;;17.85;67.26;102222.75;5032330;28;20171;-45
2022/05/15 09:30:43;;;;;;;10.50;4.95;;;;;;;17.55;68.93;102220.44;5031708;28;20207;-44
2022/05/15 09:34:07;;;;;;;9.80;5.07;;;;;;;17.24;68.75;102213.69;5031777;28;20192;-45
2022/05/15 09:36:33;;;;;;;12.50;5.00;;;;;;;17.46;69.38;102219.03;4956741;28;20751;-46
2022/05/15 09:39:25;;;;;;;11.57;5.10;;;;;;;17.19;68.94;102214.88;4970753;28;20373;-42
2022/05/15 09:44:45;;;;;;;14.55;5.30;;;;;;;17.18;70.17;102213.97;5031597;28;20381;-43
2022/05/15 09:47:10;;;;;;;9.07;3.95;;;;;;;17.54;68.68;102212.41;5031914;28;20175;-44
2022/05/15 09:49:36;;;;;;;8.30;3.85;;;;;;;17.35;65.40;102209.63;5031767;28;20268;-45
2022/05/15 09:52:11;;;;;;;8.50;4.30;;;;;;;17.67;67.70;102208.19;5031754;28;20291;-44
2022/05/15 09:54:38;;;;;;;7.95;3.40;;;;;;;18.03;66.47;102211.03;5031863;28;20621;-44
2022/05/15 09:57:19;;;;;;;9.10;3.78;;;;;;;17.44;62.43;102199.25;5031568;28;20558;-45
2022/05/15 09:59:59;;;;;;;7.00;3.22;;;;;;;17.41;65.06;102201.25;5031870;28;20172;-44
2022/05/15 10:02:45;;;;;;;7.35;3.17;;;;;;;17.79;62.04;102204.03;5031411;28;20250;-44
2022/05/15 10:05:13;;;;;;;6.25;3.05;;;;;;;17.65;61.38;102202.84;5031617;28;20534;-44
2022/05/15 10:07:44;;;;;;;6.68;2.65;;;;;;;17.75;61.27;102196.97;5031441;28;20195;-43
2022/05/15 10:10:18;;;;;;;6.13;2.20;;;;;;;18.37;57.66;102192.25;5031369;28;20176;-43
2022/05/15 10:12:46;;;;;;;6.43;2.85;;;;;;;17.91;60.75;102193.50;5031494;28;20173;-45
2022/05/15 10:15:13;;;;;;;3.88;2.50;;;;;;;17.50;58.72;102187.28;5031376;28;20166;-44
2022/05/15 10:17:47;;;;;;;6.72;2.63;;;;;;;17.75;59.62;102186.13;5031474;28;20171;-45
2022/05/15 10:20:24;;;;;;;4.35;2.20;;;;;;;17.41;60.55;102191.28;5031036;28;20164;-46
2022/05/15 10:22:58;;;;;;;5.07;2.20;;;;;;;18.17;58.98;102187.78;5031679;28;20172;-44
2022/05/15 10:25:35;;;;;;;4.32;1.88;;;;;;;17.49;57.38;102190.91;5031641;28;20558;-44
2022/05/15 10:28:23;;;;;;;6.38;2.10;;;;;;;17.34;59.82;102186.19;5030915;28;20190;-43
2022/05/15 10:31:19;;;;;;;5.43;2.17;;;;;;;17.28;60.38;102177.41;5031145;28;20231;-45
2022/05/15 10:33:58;;;;;;;5.70;2.10;;;;;;;17.33;58.91;102173.63;5030969;28;20425;-44
2022/05/15 10:36:24;;;;;;;7.13;3.55;;;;;;;17.56;58.06;102186.09;5031063;28;20172;-45
2022/05/15 10:38:56;;;;;;;6.38;2.40;;;;;;;17.89;61.14;102183.69;5030916;28;20180;-45
2022/05/15 10:41:39;;;;;;;4.93;2.53;;;;;;;18.14;60.64;102174.38;5031213;28;20200;-44
2022/05/15 10:44:29;;;;;;;6.00;2.55;;;;;;;18.51;60.21;102170.72;5030770;28;20167;-44
2022/05/15 10:47:06;;;;;;;6.00;2.30;;;;;;;18.93;59.14;102161.38;5030199;28;20172;-44
2022/05/15 10:49:44;;;;;;;4.40;3.50;;;;;;;18.59;58.02;102173.06;5031136;28;20175;-45
2022/05/15 10:52:39;;;;;;;7.13;4.18;;;;;;;17.98;55.40;102166.97;5029623;28;20199;-47
2022/05/15 10:58:26;;;;;;;7.40;3.55;;;;;;;17.44;60.17;102157.75;5030483;28;20199;-46
2022/05/15 11:01:03;;;;;;;5.95;3.63;;;;;;;17.28;60.41;102161.16;5030702;28;20235;-49
2022/05/15 11:03:43;;;;;;;7.47;3.63;;;;;;;17.17;58.71;102149.06;5030049;28;20168;-47
2022/05/15 11:06:31;;;;;;;7.88;2.55;;;;;;;17.25;59.31;102158.59;5030544;28;20325;-47
2022/05/15 11:09:21;;;;;;;6.30;2.40;;;;;;;17.21;61.65;102145.25;5030321;28;20283;-49
2022/05/15 11:12:02;;;;;;;6.05;3.40;;;;;;;16.75;66.09;102156.25;5029351;28;20204;-49
2022/05/15 11:15:00;;;;;;;6.00;2.60;;;;;;;16.82;64.91;102152.34;5030180;28;20323;-47
2022/05/15 11:18:10;;;;;;;5.82;2.58;;;;;;;17.18;64.89;102148.09;5029238;28;20692;-49
2022/05/15 11:20:42;;;;;;;5.05;2.53;;;;;;;16.91;66.30;102136.66;4968565;28;20233;-48
2022/05/15 11:23:36;;;;;;;12.25;3.83;;;;;;;16.24;71.33;102152.06;4968511;28;20192;-48
2022/05/15 11:26:10;;;;;;;6.22;3.17;;;;;;;16.36;68.84;102148.88;5008755;28;20196;-51
2022/05/15 11:28:52;;;;;;;6.32;2.20;;;;;;;16.50;65.73;102142.00;5029762;28;20255;-50
2022/05/15 11:31:22;;;;;;;9.95;3.47;;;;;;;16.18;70.24;102155.91;5030181;28;20265;-49
2022/05/15 11:34:02;;;;;;;9.38;3.22;;;;;;;16.17;70.52;102143.31;5029475;28;20760;-50
2022/05/15 11:36:35;;;;;;;10.50;3.15;;;;;;;16.16;70.22;102151.47;5030133;28;20546;-46
2022/05/15 11:39:15;;;;;;;6.28;2.85;;;;;;;16.12;70.00;102141.75;5029779;28;20650;-48
2022/05/15 11:41:44;;;;;;;8.90;3.30;;;;;;;16.45;68.02;102132.25;5029909;28;20210;-47
2022/05/15 11:44:37;;;;;;;10.40;2.60;;;;;;;16.52;66.68;102134.69;5029732;28;20176;-47
2022/05/15 11:47:14;;;;;;;7.53;2.28;;;;;;;16.43;64.96;102133.25;5022341;28;20202;-46
2022/05/15 11:50:09;;;;;;;6.85;2.72;;;;;;;16.30;68.65;102132.00;5029943;28;20286;-49
2022/05/15 11:53:03;;;;;;;8.55;3.00;;;;;;;16.27;68.70;102123.06;5028581;28;20845;-47
2022/05/15 11:55:45;;;;;;;6.47;3.25;;;;;;;16.59;66.95;102128.94;5029843;28;20172;-47